Weather at Mount Hotham Airport

Public forecast

Using degrees Celsius for public forecast. Weather courtesy of forecast.io.

Closest aviation weather report (METAR) to Mount Hotham Airport

Closest report is Albury Airport, 61.6 nm (114.0 km) NNW. Retrieved 2020/10/27 13:00 UTC (43 minutes ago):

YMAY 271300Z AUTO 13005KT 9999 // SCT062 SCT074 OVC086 15/11 Q1018

Closest aviation forecast (TAF) to Mount Hotham Airport

Forecast is more than 6 hours old.

Closest forecast is Wangaratta Airport, 62.3 nm (115.4 km) NW. Retrieved 2020-10-27 02:33 UTC (11 hours ago):

TAF YWGT 270111Z 2702/2714 13008KT CAVOK